sensor_id;sensor_type;location;lat;lon;timestamp;temperature;humidity
25108;DHT22;13090;53.422;7.670;2023-11-19T00:04:49;10.20;96.50
25108;DHT22;13090;53.422;7.670;2023-11-19T00:10:31;10.30;96.40
25108;DHT22;13090;53.422;7.670;2023-11-19T00:16:11;10.40;96.80
25108;DHT22;13090;53.422;7.670;2023-11-19T00:21:51;10.50;96.40
25108;DHT22;13090;53.422;7.670;2023-11-19T00:27:33;10.60;96.40
25108;DHT22;13090;53.422;7.670;2023-11-19T00:33:13;10.70;96.50
25108;DHT22;13090;53.422;7.670;2023-11-19T00:38:53;10.80;96.60
25108;DHT22;13090;53.422;7.670;2023-11-19T00:44:35;11.00;96.60
25108;DHT22;13090;53.422;7.670;2023-11-19T00:50:15;11.20;96.70
25108;DHT22;13090;53.422;7.670;2023-11-19T00:55:56;11.30;96.60
25108;DHT22;13090;53.422;7.670;2023-11-19T01:01:38;11.50;96.70
25108;DHT22;13090;53.422;7.670;2023-11-19T01:07:17;11.70;96.70
25108;DHT22;13090;53.422;7.670;2023-11-19T01:12:57;11.90;96.60
25108;DHT22;13090;53.422;7.670;2023-11-19T01:18:39;12.10;96.60
25108;DHT22;13090;53.422;7.670;2023-11-19T01:24:20;12.20;96.60
25108;DHT22;13090;53.422;7.670;2023-11-19T01:30:00;12.30;96.60
25108;DHT22;13090;53.422;7.670;2023-11-19T01:35:42;12.50;96.90
25108;DHT22;13090;53.422;7.670;2023-11-19T01:41:22;12.60;96.60
25108;DHT22;13090;53.422;7.670;2023-11-19T01:47:03;12.80;96.50
25108;DHT22;13090;53.422;7.670;2023-11-19T01:52:45;12.90;96.50
25108;DHT22;13090;53.422;7.670;2023-11-19T01:58:25;13.00;96.40
25108;DHT22;13090;53.422;7.670;2023-11-19T02:04:06;13.10;96.40
25108;DHT22;13090;53.422;7.670;2023-11-19T02:09:48;13.20;96.40
25108;DHT22;13090;53.422;7.670;2023-11-19T02:15:28;13.20;96.40
25108;DHT22;13090;53.422;7.670;2023-11-19T02:21:09;13.30;96.40
25108;DHT22;13090;53.422;7.670;2023-11-19T02:26:57;13.40;96.40
25108;DHT22;13090;53.422;7.670;2023-11-19T02:32:42;13.50;96.50
25108;DHT22;13090;53.422;7.670;2023-11-19T02:38:22;13.70;96.50
25108;DHT22;13090;53.422;7.670;2023-11-19T02:44:03;13.70;96.40
25108;DHT22;13090;53.422;7.670;2023-11-19T02:49:45;13.80;96.30
25108;DHT22;13090;53.422;7.670;2023-11-19T02:55:25;13.80;96.20
25108;DHT22;13090;53.422;7.670;2023-11-19T03:01:05;13.90;96.30
25108;DHT22;13090;53.422;7.670;2023-11-19T03:06:47;13.90;96.20
25108;DHT22;13090;53.422;7.670;2023-11-19T03:12:27;13.90;96.20
25108;DHT22;13090;53.422;7.670;2023-11-19T03:18:07;13.90;96.10
25108;DHT22;13090;53.422;7.670;2023-11-19T03:23:49;13.90;96.10
25108;DHT22;13090;53.422;7.670;2023-11-19T03:29:29;13.90;96.10
25108;DHT22;13090;53.422;7.670;2023-11-19T03:35:09;13.90;96.10
25108;DHT22;13090;53.422;7.670;2023-11-19T03:40:51;13.90;96.20
25108;DHT22;13090;53.422;7.670;2023-11-19T03:46:32;14.00;96.20
25108;DHT22;13090;53.422;7.670;2023-11-19T03:52:12;14.00;96.20
25108;DHT22;13090;53.422;7.670;2023-11-19T03:58:01;14.00;96.10
25108;DHT22;13090;53.422;7.670;2023-11-19T04:03:42;14.00;96.10
25108;DHT22;13090;53.422;7.670;2023-11-19T04:09:25;14.00;96.10
25108;DHT22;13090;53.422;7.670;2023-11-19T04:15:08;14.10;96.10
25108;DHT22;13090;53.422;7.670;2023-11-19T04:20:48;14.10;96.10
25108;DHT22;13090;53.422;7.670;2023-11-19T04:26:32;14.10;96.10
25108;DHT22;13090;53.422;7.670;2023-11-19T04:32:18;14.10;96.00
25108;DHT22;13090;53.422;7.670;2023-11-19T04:38:04;14.00;96.40
25108;DHT22;13090;53.422;7.670;2023-11-19T04:43:46;14.10;96.00
25108;DHT22;13090;53.422;7.670;2023-11-19T04:49:31;14.10;96.00
25108;DHT22;13090;53.422;7.670;2023-11-19T04:55:16;14.10;96.00
25108;DHT22;13090;53.422;7.670;2023-11-19T05:01:03;14.10;96.00
25108;DHT22;13090;53.422;7.670;2023-11-19T05:06:50;14.10;96.00
25108;DHT22;13090;53.422;7.670;2023-11-19T05:12:34;14.10;96.10
25108;DHT22;13090;53.422;7.670;2023-11-19T05:18:19;14.10;95.90
25108;DHT22;13090;53.422;7.670;2023-11-19T05:24:04;14.10;95.90
25108;DHT22;13090;53.422;7.670;2023-11-19T05:29:45;14.10;95.90
25108;DHT22;13090;53.422;7.670;2023-11-19T05:35:25;14.10;96.00
25108;DHT22;13090;53.422;7.670;2023-11-19T05:41:07;14.00;96.00
25108;DHT22;13090;53.422;7.670;2023-11-19T05:46:47;14.00;96.00
25108;DHT22;13090;53.422;7.670;2023-11-19T05:52:28;14.00;95.90
25108;DHT22;13090;53.422;7.670;2023-11-19T05:58:10;14.00;95.90
25108;DHT22;13090;53.422;7.670;2023-11-19T06:03:50;13.90;95.80
25108;DHT22;13090;53.422;7.670;2023-11-19T06:09:30;13.90;95.80
25108;DHT22;13090;53.422;7.670;2023-11-19T06:15:12;13.80;95.90
25108;DHT22;13090;53.422;7.670;2023-11-19T06:20:52;13.80;95.90
25108;DHT22;13090;53.422;7.670;2023-11-19T06:26:32;13.80;95.90
25108;DHT22;13090;53.422;7.670;2023-11-19T06:32:14;13.80;95.80
25108;DHT22;13090;53.422;7.670;2023-11-19T06:37:54;13.80;95.80
25108;DHT22;13090;53.422;7.670;2023-11-19T06:43:35;13.80;95.80
25108;DHT22;13090;53.422;7.670;2023-11-19T06:49:20;13.70;95.80
25108;DHT22;13090;53.422;7.670;2023-11-19T06:55:04;13.70;95.80
25108;DHT22;13090;53.422;7.670;2023-11-19T07:00:48;13.70;95.80
25108;DHT22;13090;53.422;7.670;2023-11-19T07:06:30;13.70;95.80
25108;DHT22;13090;53.422;7.670;2023-11-19T07:12:14;13.70;95.90
25108;DHT22;13090;53.422;7.670;2023-11-19T07:17:55;13.70;95.90
25108;DHT22;13090;53.422;7.670;2023-11-19T07:23:39;13.70;95.90
25108;DHT22;13090;53.422;7.670;2023-11-19T07:29:20;13.70;95.80
25108;DHT22;13090;53.422;7.670;2023-11-19T07:35:04;13.70;95.80
25108;DHT22;13090;53.422;7.670;2023-11-19T07:40:46;13.70;95.80
25108;DHT22;13090;53.422;7.670;2023-11-19T07:46:28;13.70;95.80
25108;DHT22;13090;53.422;7.670;2023-11-19T07:52:08;13.70;95.80
25108;DHT22;13090;53.422;7.670;2023-11-19T07:57:53;13.80;95.80
25108;DHT22;13090;53.422;7.670;2023-11-19T08:03:33;13.80;95.80
25108;DHT22;13090;53.422;7.670;2023-11-19T08:09:14;13.80;95.80
25108;DHT22;13090;53.422;7.670;2023-11-19T08:14:56;13.80;95.70
25108;DHT22;13090;53.422;7.670;2023-11-19T08:20:36;13.90;95.80
25108;DHT22;13090;53.422;7.670;2023-11-19T08:26:16;14.00;96.10
25108;DHT22;13090;53.422;7.670;2023-11-19T08:32:02;14.30;96.20
25108;DHT22;13090;53.422;7.670;2023-11-19T08:37:42;14.50;95.70
25108;DHT22;13090;53.422;7.670;2023-11-19T08:43:23;14.60;95.50
25108;DHT22;13090;53.422;7.670;2023-11-19T08:49:06;14.60;95.30
25108;DHT22;13090;53.422;7.670;2023-11-19T08:54:46;14.50;95.30
25108;DHT22;13090;53.422;7.670;2023-11-19T09:00:26;14.50;95.20
25108;DHT22;13090;53.422;7.670;2023-11-19T09:06:08;14.50;95.20
25108;DHT22;13090;53.422;7.670;2023-11-19T09:11:48;14.40;95.10
25108;DHT22;13090;53.422;7.670;2023-11-19T09:17:29;14.40;95.20
25108;DHT22;13090;53.422;7.670;2023-11-19T09:23:11;14.30;95.20
25108;DHT22;13090;53.422;7.670;2023-11-19T09:28:51;14.30;95.20
25108;DHT22;13090;53.422;7.670;2023-11-19T09:34:31;14.30;95.30
25108;DHT22;13090;53.422;7.670;2023-11-19T09:40:13;14.40;95.40
25108;DHT22;13090;53.422;7.670;2023-11-19T09:45:55;14.40;95.30
25108;DHT22;13090;53.422;7.670;2023-11-19T09:51:36;14.50;95.20
25108;DHT22;13090;53.422;7.670;2023-11-19T09:57:18;14.50;95.30
25108;DHT22;13090;53.422;7.670;2023-11-19T10:02:59;14.60;95.60
25108;DHT22;13090;53.422;7.670;2023-11-19T10:08:41;14.80;95.70
25108;DHT22;13090;53.422;7.670;2023-11-19T10:14:23;15.20;95.90
25108;DHT22;13090;53.422;7.670;2023-11-19T10:20:05;15.60;95.80
25108;DHT22;13090;53.422;7.670;2023-11-19T10:25:45;15.80;95.30
25108;DHT22;13090;53.422;7.670;2023-11-19T10:31:27;16.10;95.30
25108;DHT22;13090;53.422;7.670;2023-11-19T10:37:07;16.20;94.80
25108;DHT22;13090;53.422;7.670;2023-11-19T10:42:47;16.40;95.00
25108;DHT22;13090;53.422;7.670;2023-11-19T10:48:29;16.60;94.60
25108;DHT22;13090;53.422;7.670;2023-11-19T10:54:10;16.70;93.90
25108;DHT22;13090;53.422;7.670;2023-11-19T10:59:53;16.60;93.50
25108;DHT22;13090;53.422;7.670;2023-11-19T11:05:38;16.40;93.50
25108;DHT22;13090;53.422;7.670;2023-11-19T11:11:19;16.30;93.70
25108;DHT22;13090;53.422;7.670;2023-11-19T11:17:02;16.30;94.10
25108;DHT22;13090;53.422;7.670;2023-11-19T11:23:03;16.40;94.00
25108;DHT22;13090;53.422;7.670;2023-11-19T11:28:52;16.50;93.60
25108;DHT22;13090;53.422;7.670;2023-11-19T11:34:47;16.50;93.50
25108;DHT22;13090;53.422;7.670;2023-11-19T11:40:31;16.50;93.20
25108;DHT22;13090;53.422;7.670;2023-11-19T11:52:25;16.20;93.30
25108;DHT22;13090;53.422;7.670;2023-11-19T11:58:06;16.10;93.50
25108;DHT22;13090;53.422;7.670;2023-11-19T12:03:47;16.00;93.60
25108;DHT22;13090;53.422;7.670;2023-11-19T12:09:29;15.90;93.50
25108;DHT22;13090;53.422;7.670;2023-11-19T12:15:11;15.80;93.50
25108;DHT22;13090;53.422;7.670;2023-11-19T12:20:51;15.70;93.60
25108;DHT22;13090;53.422;7.670;2023-11-19T12:26:37;15.70;93.50
25108;DHT22;13090;53.422;7.670;2023-11-19T12:32:19;15.60;93.60
25108;DHT22;13090;53.422;7.670;2023-11-19T12:38:00;15.50;93.60
25108;DHT22;13090;53.422;7.670;2023-11-19T12:43:40;15.40;93.70
25108;DHT22;13090;53.422;7.670;2023-11-19T12:49:25;15.40;93.90
25108;DHT22;13090;53.422;7.670;2023-11-19T12:55:23;15.30;94.10
25108;DHT22;13090;53.422;7.670;2023-11-19T13:01:07;15.50;94.40
25108;DHT22;13090;53.422;7.670;2023-11-19T13:06:49;15.70;94.20
25108;DHT22;13090;53.422;7.670;2023-11-19T13:12:32;15.80;93.90
25108;DHT22;13090;53.422;7.670;2023-11-19T13:18:12;15.80;93.70
25108;DHT22;13090;53.422;7.670;2023-11-19T13:23:54;15.70;93.60
25108;DHT22;13090;53.422;7.670;2023-11-19T13:29:34;15.70;93.60
25108;DHT22;13090;53.422;7.670;2023-11-19T13:35:16;15.60;93.50
25108;DHT22;13090;53.422;7.670;2023-11-19T13:40:59;15.60;93.50
25108;DHT22;13090;53.422;7.670;2023-11-19T13:46:39;15.40;93.50
25108;DHT22;13090;53.422;7.670;2023-11-19T13:52:19;15.30;93.50
25108;DHT22;13090;53.422;7.670;2023-11-19T13:58:01;15.20;93.50
25108;DHT22;13090;53.422;7.670;2023-11-19T14:03:41;15.10;93.60
25108;DHT22;13090;53.422;7.670;2023-11-19T14:09:22;15.00;93.70
25108;DHT22;13090;53.422;7.670;2023-11-19T14:15:04;14.90;93.80
25108;DHT22;13090;53.422;7.670;2023-11-19T14:20:45;14.90;93.90
25108;DHT22;13090;53.422;7.670;2023-11-19T14:26:25;14.80;93.90
25108;DHT22;13090;53.422;7.670;2023-11-19T14:32:07;14.70;93.90
25108;DHT22;13090;53.422;7.670;2023-11-19T14:37:47;14.60;93.90
25108;DHT22;13090;53.422;7.670;2023-11-19T14:43:27;14.50;93.80
25108;DHT22;13090;53.422;7.670;2023-11-19T14:49:09;14.50;93.90
25108;DHT22;13090;53.422;7.670;2023-11-19T14:54:49;14.40;94.00
25108;DHT22;13090;53.422;7.670;2023-11-19T15:00:30;14.40;94.00
25108;DHT22;13090;53.422;7.670;2023-11-19T15:06:12;14.40;94.10
25108;DHT22;13090;53.422;7.670;2023-11-19T15:11:53;14.30;94.20
25108;DHT22;13090;53.422;7.670;2023-11-19T15:17:34;14.30;94.20
25108;DHT22;13090;53.422;7.670;2023-11-19T15:23:16;14.30;94.20
25108;DHT22;13090;53.422;7.670;2023-11-19T15:28:56;14.30;94.20
25108;DHT22;13090;53.422;7.670;2023-11-19T15:34:36;14.30;94.20
25108;DHT22;13090;53.422;7.670;2023-11-19T15:40:18;14.20;94.20
25108;DHT22;13090;53.422;7.670;2023-11-19T15:45:59;14.20;94.20
25108;DHT22;13090;53.422;7.670;2023-11-19T15:51:39;14.00;94.20
25108;DHT22;13090;53.422;7.670;2023-11-19T15:57:21;14.00;94.30
25108;DHT22;13090;53.422;7.670;2023-11-19T16:03:01;13.90;94.30
25108;DHT22;13090;53.422;7.670;2023-11-19T16:08:41;13.90;94.30
25108;DHT22;13090;53.422;7.670;2023-11-19T16:14:23;13.80;94.40
25108;DHT22;13090;53.422;7.670;2023-11-19T16:20:06;13.80;94.50
25108;DHT22;13090;53.422;7.670;2023-11-19T16:25:46;13.80;94.70
25108;DHT22;13090;53.422;7.670;2023-11-19T16:31:28;13.80;94.70
25108;DHT22;13090;53.422;7.670;2023-11-19T16:37:08;13.70;94.70
25108;DHT22;13090;53.422;7.670;2023-11-19T16:42:49;13.70;94.80
25108;DHT22;13090;53.422;7.670;2023-11-19T16:48:32;13.70;94.80
25108;DHT22;13090;53.422;7.670;2023-11-19T16:54:17;13.70;94.90
25108;DHT22;13090;53.422;7.670;2023-11-19T16:59:57;13.70;95.00
25108;DHT22;13090;53.422;7.670;2023-11-19T17:05:40;13.70;94.90
25108;DHT22;13090;53.422;7.670;2023-11-19T17:11:20;13.70;94.90
25108;DHT22;13090;53.422;7.670;2023-11-19T17:17:00;13.70;95.00
25108;DHT22;13090;53.422;7.670;2023-11-19T17:22:42;13.70;95.00
25108;DHT22;13090;53.422;7.670;2023-11-19T17:28:22;13.70;95.00
25108;DHT22;13090;53.422;7.670;2023-11-19T17:34:03;13.70;94.90
25108;DHT22;13090;53.422;7.670;2023-11-19T17:39:45;13.70;94.90
25108;DHT22;13090;53.422;7.670;2023-11-19T17:45:25;13.70;94.90
25108;DHT22;13090;53.422;7.670;2023-11-19T17:51:06;13.60;94.90
25108;DHT22;13090;53.422;7.670;2023-11-19T17:56:48;13.60;95.00
25108;DHT22;13090;53.422;7.670;2023-11-19T18:02:28;13.60;95.00
25108;DHT22;13090;53.422;7.670;2023-11-19T18:08:12;13.60;95.00
25108;DHT22;13090;53.422;7.670;2023-11-19T18:13:54;13.60;95.00
25108;DHT22;13090;53.422;7.670;2023-11-19T18:19:34;13.60;95.10
25108;DHT22;13090;53.422;7.670;2023-11-19T18:25:14;13.60;95.10
25108;DHT22;13090;53.422;7.670;2023-11-19T18:30:57;13.50;95.10
25108;DHT22;13090;53.422;7.670;2023-11-19T18:36:38;13.50;95.10
25108;DHT22;13090;53.422;7.670;2023-11-19T18:42:19;13.50;95.20
25108;DHT22;13090;53.422;7.670;2023-11-19T18:48:01;13.50;95.20
25108;DHT22;13090;53.422;7.670;2023-11-19T18:53:42;13.50;95.20
25108;DHT22;13090;53.422;7.670;2023-11-19T18:59:23;13.50;95.20
25108;DHT22;13090;53.422;7.670;2023-11-19T19:05:07;13.50;95.20
25108;DHT22;13090;53.422;7.670;2023-11-19T19:10:47;13.50;95.20
25108;DHT22;13090;53.422;7.670;2023-11-19T19:16:28;13.50;95.20
25108;DHT22;13090;53.422;7.670;2023-11-19T19:22:12;13.50;95.30
25108;DHT22;13090;53.422;7.670;2023-11-19T19:27:56;13.50;95.30
25108;DHT22;13090;53.422;7.670;2023-11-19T19:33:58;13.40;95.30
25108;DHT22;13090;53.422;7.670;2023-11-19T19:39:42;13.40;95.30
25108;DHT22;13090;53.422;7.670;2023-11-19T19:45:23;13.40;95.30
25108;DHT22;13090;53.422;7.670;2023-11-19T19:51:06;13.40;95.40
25108;DHT22;13090;53.422;7.670;2023-11-19T19:56:51;13.50;95.50
25108;DHT22;13090;53.422;7.670;2023-11-19T20:02:36;13.50;95.50
25108;DHT22;13090;53.422;7.670;2023-11-19T20:08:18;13.50;95.40
25108;DHT22;13090;53.422;7.670;2023-11-19T20:14:00;13.50;95.40
25108;DHT22;13090;53.422;7.670;2023-11-19T20:19:40;13.50;95.40
25108;DHT22;13090;53.422;7.670;2023-11-19T20:25:21;13.50;95.40
25108;DHT22;13090;53.422;7.670;2023-11-19T20:31:03;13.50;95.40
25108;DHT22;13090;53.422;7.670;2023-11-19T20:36:43;13.50;95.40
25108;DHT22;13090;53.422;7.670;2023-11-19T20:42:23;13.40;95.40
25108;DHT22;13090;53.422;7.670;2023-11-19T20:48:05;13.40;95.40
25108;DHT22;13090;53.422;7.670;2023-11-19T20:53:45;13.40;95.50
25108;DHT22;13090;53.422;7.670;2023-11-19T20:59:26;13.40;95.50
25108;DHT22;13090;53.422;7.670;2023-11-19T21:05:15;13.40;95.50
25108;DHT22;13090;53.422;7.670;2023-11-19T21:10:56;13.50;95.60
25108;DHT22;13090;53.422;7.670;2023-11-19T21:16:37;13.50;95.60
25108;DHT22;13090;53.422;7.670;2023-11-19T21:22:18;13.50;95.60
25108;DHT22;13090;53.422;7.670;2023-11-19T21:27:59;13.50;95.50
25108;DHT22;13090;53.422;7.670;2023-11-19T21:33:39;13.50;95.50
25108;DHT22;13090;53.422;7.670;2023-11-19T21:39:21;13.50;95.50
25108;DHT22;13090;53.422;7.670;2023-11-19T21:45:01;13.50;95.50
25108;DHT22;13090;53.422;7.670;2023-11-19T21:50:41;13.50;95.60
25108;DHT22;13090;53.422;7.670;2023-11-19T21:56:23;13.50;95.50
25108;DHT22;13090;53.422;7.670;2023-11-19T22:02:03;13.40;95.60
25108;DHT22;13090;53.422;7.670;2023-11-19T22:07:44;13.40;95.60
25108;DHT22;13090;53.422;7.670;2023-11-19T22:13:25;13.40;95.60
25108;DHT22;13090;53.422;7.670;2023-11-19T22:19:05;13.50;95.70
25108;DHT22;13090;53.422;7.670;2023-11-19T22:24:46;13.50;95.70
25108;DHT22;13090;53.422;7.670;2023-11-19T22:30:27;13.50;95.70
25108;DHT22;13090;53.422;7.670;2023-11-19T22:36:08;13.60;95.70
25108;DHT22;13090;53.422;7.670;2023-11-19T22:41:48;13.60;95.60
25108;DHT22;13090;53.422;7.670;2023-11-19T22:47:30;13.60;95.60
25108;DHT22;13090;53.422;7.670;2023-11-19T22:53:10;13.60;95.60
25108;DHT22;13090;53.422;7.670;2023-11-19T22:58:50;13.50;95.60
25108;DHT22;13090;53.422;7.670;2023-11-19T23:04:32;13.60;95.60
25108;DHT22;13090;53.422;7.670;2023-11-19T23:10:12;13.60;95.60
25108;DHT22;13090;53.422;7.670;2023-11-19T23:15:52;13.60;95.60
25108;DHT22;13090;53.422;7.670;2023-11-19T23:21:34;13.60;95.60
25108;DHT22;13090;53.422;7.670;2023-11-19T23:27:14;13.60;95.60
25108;DHT22;13090;53.422;7.670;2023-11-19T23:32:55;13.60;95.50
25108;DHT22;13090;53.422;7.670;2023-11-19T23:38:37;13.50;95.50
25108;DHT22;13090;53.422;7.670;2023-11-19T23:44:17;13.50;95.50
25108;DHT22;13090;53.422;7.670;2023-11-19T23:49:57;13.50;95.60
25108;DHT22;13090;53.422;7.670;2023-11-19T23:55:39;13.50;95.60
